sensor_id;sensor_type;location;lat;lon;timestamp;temperature;humidity
16180;DHT22;8196;49.428;10.906;2023-01-24T00:00:33;2.60;99.90
16180;DHT22;8196;49.428;10.906;2023-01-24T00:03:00;2.70;99.90
16180;DHT22;8196;49.428;10.906;2023-01-24T00:05:27;2.70;99.90
16180;DHT22;8196;49.428;10.906;2023-01-24T00:07:53;2.70;99.90
16180;DHT22;8196;49.428;10.906;2023-01-24T00:10:20;3.00;99.90
16180;DHT22;8196;49.428;10.906;2023-01-24T00:12:47;2.70;99.90
16180;DHT22;8196;49.428;10.906;2023-01-24T00:15:14;3.10;99.90
16180;DHT22;8196;49.428;10.906;2023-01-24T00:17:40;2.60;99.90
16180;DHT22;8196;49.428;10.906;2023-01-24T00:20:08;2.60;99.90
16180;DHT22;8196;49.428;10.906;2023-01-24T00:22:35;2.60;99.90
16180;DHT22;8196;49.428;10.906;2023-01-24T00:25:02;2.70;99.90
16180;DHT22;8196;49.428;10.906;2023-01-24T00:27:28;2.70;99.90
16180;DHT22;8196;49.428;10.906;2023-01-24T00:29:57;2.60;99.90
16180;DHT22;8196;49.428;10.906;2023-01-24T00:32:24;2.60;99.90
16180;DHT22;8196;49.428;10.906;2023-01-24T00:34:51;2.60;99.90
16180;DHT22;8196;49.428;10.906;2023-01-24T00:37:18;2.70;99.90
16180;DHT22;8196;49.428;10.906;2023-01-24T00:39:45;2.50;99.90
16180;DHT22;8196;49.428;10.906;2023-01-24T00:42:11;2.70;99.90
16180;DHT22;8196;49.428;10.906;2023-01-24T00:44:38;2.70;99.90
16180;DHT22;8196;49.428;10.906;2023-01-24T00:47:05;2.70;99.90
16180;DHT22;8196;49.428;10.906;2023-01-24T00:49:31;2.70;99.90
16180;DHT22;8196;49.428;10.906;2023-01-24T00:51:58;2.70;99.90
16180;DHT22;8196;49.428;10.906;2023-01-24T00:54:25;2.70;99.90
16180;DHT22;8196;49.428;10.906;2023-01-24T00:56:52;2.90;99.90
16180;DHT22;8196;49.428;10.906;2023-01-24T00:59:19;2.90;99.90
16180;DHT22;8196;49.428;10.906;2023-01-24T01:01:45;2.90;99.90
16180;DHT22;8196;49.428;10.906;2023-01-24T01:04:12;3.00;99.90
16180;DHT22;8196;49.428;10.906;2023-01-24T01:06:39;3.00;99.90
16180;DHT22;8196;49.428;10.906;2023-01-24T01:09:06;2.90;99.90
16180;DHT22;8196;49.428;10.906;2023-01-24T01:11:33;3.10;99.90
16180;DHT22;8196;49.428;10.906;2023-01-24T01:13:59;3.00;99.90
16180;DHT22;8196;49.428;10.906;2023-01-24T01:16:26;3.00;99.90
16180;DHT22;8196;49.428;10.906;2023-01-24T01:18:54;3.00;99.90
16180;DHT22;8196;49.428;10.906;2023-01-24T01:21:22;3.00;99.90
16180;DHT22;8196;49.428;10.906;2023-01-24T01:23:48;3.00;99.90
16180;DHT22;8196;49.428;10.906;2023-01-24T01:26:19;3.00;99.90
16180;DHT22;8196;49.428;10.906;2023-01-24T01:28:47;3.00;99.90
16180;DHT22;8196;49.428;10.906;2023-01-24T01:31:14;3.00;99.90
16180;DHT22;8196;49.428;10.906;2023-01-24T01:33:43;3.00;99.90
16180;DHT22;8196;49.428;10.906;2023-01-24T01:36:10;3.00;99.90
16180;DHT22;8196;49.428;10.906;2023-01-24T01:38:37;3.00;99.90
16180;DHT22;8196;49.428;10.906;2023-01-24T01:41:04;3.00;99.90
16180;DHT22;8196;49.428;10.906;2023-01-24T01:43:31;3.00;99.90
16180;DHT22;8196;49.428;10.906;2023-01-24T01:46:18;3.00;99.90
16180;DHT22;8196;49.428;10.906;2023-01-24T01:48:50;3.00;99.90
16180;DHT22;8196;49.428;10.906;2023-01-24T01:51:35;3.10;99.90
16180;DHT22;8196;49.428;10.906;2023-01-24T01:54:25;3.00;99.90
16180;DHT22;8196;49.428;10.906;2023-01-24T01:56:56;3.00;99.90
16180;DHT22;8196;49.428;10.906;2023-01-24T01:59:29;3.00;99.90
16180;DHT22;8196;49.428;10.906;2023-01-24T02:01:57;3.00;99.90
16180;DHT22;8196;49.428;10.906;2023-01-24T02:04:30;3.00;99.90
16180;DHT22;8196;49.428;10.906;2023-01-24T02:09:35;3.00;99.90
16180;DHT22;8196;49.428;10.906;2023-01-24T02:12:07;3.00;99.90
16180;DHT22;8196;49.428;10.906;2023-01-24T02:14:38;2.90;99.90
16180;DHT22;8196;49.428;10.906;2023-01-24T02:17:24;3.00;99.90
16180;DHT22;8196;49.428;10.906;2023-01-24T02:20:21;3.00;99.90
16180;DHT22;8196;49.428;10.906;2023-01-24T02:25:48;3.00;99.90
16180;DHT22;8196;49.428;10.906;2023-01-24T02:28:17;3.00;99.90
16180;DHT22;8196;49.428;10.906;2023-01-24T02:30:43;3.00;99.90
16180;DHT22;8196;49.428;10.906;2023-01-24T02:33:15;3.50;99.90
16180;DHT22;8196;49.428;10.906;2023-01-24T02:35:42;3.00;99.90
16180;DHT22;8196;49.428;10.906;2023-01-24T02:38:20;3.00;99.90
16180;DHT22;8196;49.428;10.906;2023-01-24T02:40:51;3.10;99.90
16180;DHT22;8196;49.428;10.906;2023-01-24T02:43:20;3.00;99.90
16180;DHT22;8196;49.428;10.906;2023-01-24T02:45:48;3.20;99.90
16180;DHT22;8196;49.428;10.906;2023-01-24T02:48:15;2.90;99.90
16180;DHT22;8196;49.428;10.906;2023-01-24T02:50:42;2.90;99.90
16180;DHT22;8196;49.428;10.906;2023-01-24T02:53:29;2.90;99.90
16180;DHT22;8196;49.428;10.906;2023-01-24T02:55:58;3.00;99.90
16180;DHT22;8196;49.428;10.906;2023-01-24T02:58:45;2.90;99.90
16180;DHT22;8196;49.428;10.906;2023-01-24T03:01:12;2.90;99.90
16180;DHT22;8196;49.428;10.906;2023-01-24T03:03:42;2.90;99.90
16180;DHT22;8196;49.428;10.906;2023-01-24T03:06:10;2.90;99.90
16180;DHT22;8196;49.428;10.906;2023-01-24T03:08:38;2.90;99.90
16180;DHT22;8196;49.428;10.906;2023-01-24T03:11:06;2.80;99.90
16180;DHT22;8196;49.428;10.906;2023-01-24T03:13:33;2.90;99.90
16180;DHT22;8196;49.428;10.906;2023-01-24T03:16:20;2.80;99.90
16180;DHT22;8196;49.428;10.906;2023-01-24T03:19:07;2.80;99.90
16180;DHT22;8196;49.428;10.906;2023-01-24T03:21:54;2.90;99.90
16180;DHT22;8196;49.428;10.906;2023-01-24T03:24:40;2.90;99.90
16180;DHT22;8196;49.428;10.906;2023-01-24T03:27:27;2.80;99.90
16180;DHT22;8196;49.428;10.906;2023-01-24T03:30:14;2.80;99.90
16180;DHT22;8196;49.428;10.906;2023-01-24T03:33:02;2.90;99.90
16180;DHT22;8196;49.428;10.906;2023-01-24T03:35:50;2.80;99.90
16180;DHT22;8196;49.428;10.906;2023-01-24T03:38:21;2.80;99.90
16180;DHT22;8196;49.428;10.906;2023-01-24T03:41:08;2.80;99.90
16180;DHT22;8196;49.428;10.906;2023-01-24T03:43:35;3.10;99.90
16180;DHT22;8196;49.428;10.906;2023-01-24T03:46:02;2.80;99.90
16180;DHT22;8196;49.428;10.906;2023-01-24T03:48:29;2.80;99.90
16180;DHT22;8196;49.428;10.906;2023-01-24T03:51:01;2.80;99.90
16180;DHT22;8196;49.428;10.906;2023-01-24T03:53:47;2.40;99.90
16180;DHT22;8196;49.428;10.906;2023-01-24T03:56:14;2.70;99.90
16180;DHT22;8196;49.428;10.906;2023-01-24T03:58:40;2.70;99.90
16180;DHT22;8196;49.428;10.906;2023-01-24T04:01:07;2.80;99.90
16180;DHT22;8196;49.428;10.906;2023-01-24T04:03:34;2.80;99.90
16180;DHT22;8196;49.428;10.906;2023-01-24T04:06:01;2.80;99.90
16180;DHT22;8196;49.428;10.906;2023-01-24T04:08:28;2.80;99.90
16180;DHT22;8196;49.428;10.906;2023-01-24T04:10:55;2.80;99.90
16180;DHT22;8196;49.428;10.906;2023-01-24T04:13:23;2.70;99.90
16180;DHT22;8196;49.428;10.906;2023-01-24T04:15:50;2.70;99.90
16180;DHT22;8196;49.428;10.906;2023-01-24T04:18:17;2.70;99.90
16180;DHT22;8196;49.428;10.906;2023-01-24T04:20:43;2.50;99.90
16180;DHT22;8196;49.428;10.906;2023-01-24T04:23:10;2.70;99.90
16180;DHT22;8196;49.428;10.906;2023-01-24T04:25:38;2.70;99.90
16180;DHT22;8196;49.428;10.906;2023-01-24T04:28:05;2.70;99.90
16180;DHT22;8196;49.428;10.906;2023-01-24T04:30:32;2.70;99.90
16180;DHT22;8196;49.428;10.906;2023-01-24T04:32:59;2.70;99.90
16180;DHT22;8196;49.428;10.906;2023-01-24T04:35:28;2.60;99.90
16180;DHT22;8196;49.428;10.906;2023-01-24T04:38:00;2.60;99.90
16180;DHT22;8196;49.428;10.906;2023-01-24T04:40:27;2.70;99.90
16180;DHT22;8196;49.428;10.906;2023-01-24T04:42:55;2.70;99.90
16180;DHT22;8196;49.428;10.906;2023-01-24T04:45:23;2.60;99.90
16180;DHT22;8196;49.428;10.906;2023-01-24T04:47:50;2.60;99.90
16180;DHT22;8196;49.428;10.906;2023-01-24T04:50:17;2.90;99.90
16180;DHT22;8196;49.428;10.906;2023-01-24T04:52:43;4.00;99.90
16180;DHT22;8196;49.428;10.906;2023-01-24T04:55:10;3.60;99.90
16180;DHT22;8196;49.428;10.906;2023-01-24T04:57:37;2.60;99.90
16180;DHT22;8196;49.428;10.906;2023-01-24T05:00:04;2.60;99.90
16180;DHT22;8196;49.428;10.906;2023-01-24T05:02:31;2.60;99.90
16180;DHT22;8196;49.428;10.906;2023-01-24T05:04:59;2.60;99.90
16180;DHT22;8196;49.428;10.906;2023-01-24T05:07:25;2.60;99.90
16180;DHT22;8196;49.428;10.906;2023-01-24T05:09:52;2.60;99.90
16180;DHT22;8196;49.428;10.906;2023-01-24T05:12:19;2.40;99.90
16180;DHT22;8196;49.428;10.906;2023-01-24T05:14:46;2.70;99.90
16180;DHT22;8196;49.428;10.906;2023-01-24T05:17:13;2.70;99.90
16180;DHT22;8196;49.428;10.906;2023-01-24T05:19:39;2.70;99.90
16180;DHT22;8196;49.428;10.906;2023-01-24T05:22:06;2.70;99.90
16180;DHT22;8196;49.428;10.906;2023-01-24T05:24:33;2.40;99.90
16180;DHT22;8196;49.428;10.906;2023-01-24T05:26:59;2.70;99.90
16180;DHT22;8196;49.428;10.906;2023-01-24T05:29:26;2.70;99.90
16180;DHT22;8196;49.428;10.906;2023-01-24T05:31:53;3.10;99.90
16180;DHT22;8196;49.428;10.906;2023-01-24T05:34:20;2.70;99.90
16180;DHT22;8196;49.428;10.906;2023-01-24T05:36:47;2.60;99.90
16180;DHT22;8196;49.428;10.906;2023-01-24T05:39:13;2.60;99.90
16180;DHT22;8196;49.428;10.906;2023-01-24T05:41:41;2.70;99.90
16180;DHT22;8196;49.428;10.906;2023-01-24T05:44:08;2.10;99.90
16180;DHT22;8196;49.428;10.906;2023-01-24T05:46:35;2.70;99.90
16180;DHT22;8196;49.428;10.906;2023-01-24T05:49:02;2.10;99.90
16180;DHT22;8196;49.428;10.906;2023-01-24T05:51:29;2.60;99.90
16180;DHT22;8196;49.428;10.906;2023-01-24T05:53:55;2.70;99.90
16180;DHT22;8196;49.428;10.906;2023-01-24T05:56:22;2.70;99.90
16180;DHT22;8196;49.428;10.906;2023-01-24T05:58:49;2.80;99.90
16180;DHT22;8196;49.428;10.906;2023-01-24T06:01:19;2.70;99.90
16180;DHT22;8196;49.428;10.906;2023-01-24T06:03:48;2.70;99.90
16180;DHT22;8196;49.428;10.906;2023-01-24T06:06:17;2.70;99.90
16180;DHT22;8196;49.428;10.906;2023-01-24T06:08:44;2.80;99.90
16180;DHT22;8196;49.428;10.906;2023-01-24T06:11:14;2.70;99.90
16180;DHT22;8196;49.428;10.906;2023-01-24T06:13:42;2.70;99.90
16180;DHT22;8196;49.428;10.906;2023-01-24T06:16:11;2.70;99.90
16180;DHT22;8196;49.428;10.906;2023-01-24T06:18:39;2.70;99.90
16180;DHT22;8196;49.428;10.906;2023-01-24T06:23:41;2.90;99.90
16180;DHT22;8196;49.428;10.906;2023-01-24T06:26:10;2.80;99.90
16180;DHT22;8196;49.428;10.906;2023-01-24T06:28:38;2.80;99.90
16180;DHT22;8196;49.428;10.906;2023-01-24T06:33:36;2.80;99.90
16180;DHT22;8196;49.428;10.906;2023-01-24T06:36:37;2.80;99.90
16180;DHT22;8196;49.428;10.906;2023-01-24T06:39:16;2.80;99.90
16180;DHT22;8196;49.428;10.906;2023-01-24T06:41:43;2.80;99.90
16180;DHT22;8196;49.428;10.906;2023-01-24T06:44:10;2.80;99.90
16180;DHT22;8196;49.428;10.906;2023-01-24T06:46:38;2.80;99.90
16180;DHT22;8196;49.428;10.906;2023-01-24T06:49:05;2.80;99.90
16180;DHT22;8196;49.428;10.906;2023-01-24T06:51:32;2.80;99.90
16180;DHT22;8196;49.428;10.906;2023-01-24T06:53:59;2.80;99.90
16180;DHT22;8196;49.428;10.906;2023-01-24T06:58:56;2.80;99.90
16180;DHT22;8196;49.428;10.906;2023-01-24T07:01:23;2.30;99.90
16180;DHT22;8196;49.428;10.906;2023-01-24T07:03:50;2.80;99.90
16180;DHT22;8196;49.428;10.906;2023-01-24T07:06:16;2.80;99.90
16180;DHT22;8196;49.428;10.906;2023-01-24T07:08:43;2.90;99.90
16180;DHT22;8196;49.428;10.906;2023-01-24T07:11:10;2.90;99.90
16180;DHT22;8196;49.428;10.906;2023-01-24T07:13:36;2.90;99.90
16180;DHT22;8196;49.428;10.906;2023-01-24T07:16:03;3.20;99.90
16180;DHT22;8196;49.428;10.906;2023-01-24T07:18:30;2.90;99.90
16180;DHT22;8196;49.428;10.906;2023-01-24T07:20:57;2.90;99.90
16180;DHT22;8196;49.428;10.906;2023-01-24T07:23:26;2.90;99.90
16180;DHT22;8196;49.428;10.906;2023-01-24T07:25:58;2.90;99.90
16180;DHT22;8196;49.428;10.906;2023-01-24T07:28:25;2.80;99.90
16180;DHT22;8196;49.428;10.906;2023-01-24T07:30:53;2.90;99.90
16180;DHT22;8196;49.428;10.906;2023-01-24T07:33:20;3.00;99.90
16180;DHT22;8196;49.428;10.906;2023-01-24T07:35:47;3.00;99.90
16180;DHT22;8196;49.428;10.906;2023-01-24T07:38:14;3.00;99.90
16180;DHT22;8196;49.428;10.906;2023-01-24T07:40:40;3.00;99.90
16180;DHT22;8196;49.428;10.906;2023-01-24T07:43:08;3.10;99.90
16180;DHT22;8196;49.428;10.906;2023-01-24T07:45:35;3.10;99.90
16180;DHT22;8196;49.428;10.906;2023-01-24T07:48:05;4.40;99.90
16180;DHT22;8196;49.428;10.906;2023-01-24T07:50:33;3.10;99.90
16180;DHT22;8196;49.428;10.906;2023-01-24T07:53:00;3.20;99.90
16180;DHT22;8196;49.428;10.906;2023-01-24T07:55:27;3.20;99.90
16180;DHT22;8196;49.428;10.906;2023-01-24T08:00:28;3.20;99.90
16180;DHT22;8196;49.428;10.906;2023-01-24T08:02:54;3.20;99.90
16180;DHT22;8196;49.428;10.906;2023-01-24T08:05:21;3.20;99.90
16180;DHT22;8196;49.428;10.906;2023-01-24T08:07:48;3.20;99.90
16180;DHT22;8196;49.428;10.906;2023-01-24T08:10:15;3.10;99.90
16180;DHT22;8196;49.428;10.906;2023-01-24T08:12:42;3.90;99.90
16180;DHT22;8196;49.428;10.906;2023-01-24T08:15:09;3.40;99.90
16180;DHT22;8196;49.428;10.906;2023-01-24T08:17:36;3.50;99.90
16180;DHT22;8196;49.428;10.906;2023-01-24T08:20:04;3.50;99.90
16180;DHT22;8196;49.428;10.906;2023-01-24T08:22:31;3.50;99.90
16180;DHT22;8196;49.428;10.906;2023-01-24T08:24:58;3.60;99.90
16180;DHT22;8196;49.428;10.906;2023-01-24T08:27:25;3.60;99.90
16180;DHT22;8196;49.428;10.906;2023-01-24T08:29:51;3.60;99.90
16180;DHT22;8196;49.428;10.906;2023-01-24T08:32:18;3.60;99.90
16180;DHT22;8196;49.428;10.906;2023-01-24T08:34:45;2.90;99.90
16180;DHT22;8196;49.428;10.906;2023-01-24T08:37:12;3.70;99.90
16180;DHT22;8196;49.428;10.906;2023-01-24T08:39:39;3.70;99.90
16180;DHT22;8196;49.428;10.906;2023-01-24T08:42:06;3.90;99.90
16180;DHT22;8196;49.428;10.906;2023-01-24T08:44:33;3.80;99.90
16180;DHT22;8196;49.428;10.906;2023-01-24T08:47:00;3.80;99.90
16180;DHT22;8196;49.428;10.906;2023-01-24T08:49:27;3.80;99.90
16180;DHT22;8196;49.428;10.906;2023-01-24T08:51:53;3.80;99.90
16180;DHT22;8196;49.428;10.906;2023-01-24T08:54:27;3.80;99.90
16180;DHT22;8196;49.428;10.906;2023-01-24T08:56:54;3.80;99.90
16180;DHT22;8196;49.428;10.906;2023-01-24T08:59:22;4.20;99.90
16180;DHT22;8196;49.428;10.906;2023-01-24T09:01:48;4.00;99.90
16180;DHT22;8196;49.428;10.906;2023-01-24T09:04:15;3.80;99.90
16180;DHT22;8196;49.428;10.906;2023-01-24T09:06:42;4.00;99.90
16180;DHT22;8196;49.428;10.906;2023-01-24T09:09:09;4.50;99.90
16180;DHT22;8196;49.428;10.906;2023-01-24T09:11:36;4.40;99.90
16180;DHT22;8196;49.428;10.906;2023-01-24T09:14:03;4.00;99.90
16180;DHT22;8196;49.428;10.906;2023-01-24T09:16:30;4.00;99.90
16180;DHT22;8196;49.428;10.906;2023-01-24T09:18:56;4.00;99.90
16180;DHT22;8196;49.428;10.906;2023-01-24T09:21:23;4.10;99.90
16180;DHT22;8196;49.428;10.906;2023-01-24T09:23:52;4.00;99.90
16180;DHT22;8196;49.428;10.906;2023-01-24T09:26:19;4.20;99.90
16180;DHT22;8196;49.428;10.906;2023-01-24T09:28:46;4.20;99.90
16180;DHT22;8196;49.428;10.906;2023-01-24T09:31:12;4.20;99.90
16180;DHT22;8196;49.428;10.906;2023-01-24T09:33:39;4.20;99.90
16180;DHT22;8196;49.428;10.906;2023-01-24T09:36:24;4.30;99.90
16180;DHT22;8196;49.428;10.906;2023-01-24T09:38:50;4.40;99.90
16180;DHT22;8196;49.428;10.906;2023-01-24T09:46:44;4.60;99.90
16180;DHT22;8196;49.428;10.906;2023-01-24T09:51:49;5.20;99.90
16180;DHT22;8196;49.428;10.906;2023-01-24T09:54:29;4.70;99.90
16180;DHT22;8196;49.428;10.906;2023-01-24T09:56:57;4.60;99.90
16180;DHT22;8196;49.428;10.906;2023-01-24T09:59:43;4.60;99.90
16180;DHT22;8196;49.428;10.906;2023-01-24T10:02:20;4.50;99.90
16180;DHT22;8196;49.428;10.906;2023-01-24T10:04:48;4.40;99.90
16180;DHT22;8196;49.428;10.906;2023-01-24T10:07:23;4.40;99.90
16180;DHT22;8196;49.428;10.906;2023-01-24T10:10:03;4.40;99.90
16180;DHT22;8196;49.428;10.906;2023-01-24T10:12:54;4.80;99.90
16180;DHT22;8196;49.428;10.906;2023-01-24T10:15:34;4.50;99.90
16180;DHT22;8196;49.428;10.906;2023-01-24T10:20:55;4.70;99.90
16180;DHT22;8196;49.428;10.906;2023-01-24T10:28:28;4.80;99.90
16180;DHT22;8196;49.428;10.906;2023-01-24T10:33:29;4.70;99.90
16180;DHT22;8196;49.428;10.906;2023-01-24T10:36:12;4.70;99.90
16180;DHT22;8196;49.428;10.906;2023-01-24T10:38:41;4.80;99.90
16180;DHT22;8196;49.428;10.906;2023-01-24T10:41:17;5.10;99.90
16180;DHT22;8196;49.428;10.906;2023-01-24T10:43:53;4.60;99.90
16180;DHT22;8196;49.428;10.906;2023-01-24T10:46:43;5.10;99.90
16180;DHT22;8196;49.428;10.906;2023-01-24T10:49:17;5.10;99.90
16180;DHT22;8196;49.428;10.906;2023-01-24T10:54:47;5.10;99.90
16180;DHT22;8196;49.428;10.906;2023-01-24T10:57:23;5.10;99.90
16180;DHT22;8196;49.428;10.906;2023-01-24T10:59:54;5.10;99.90
16180;DHT22;8196;49.428;10.906;2023-01-24T11:02:23;5.10;99.90
16180;DHT22;8196;49.428;10.906;2023-01-24T11:04:58;5.10;99.90
16180;DHT22;8196;49.428;10.906;2023-01-24T11:07:30;5.10;99.90
16180;DHT22;8196;49.428;10.906;2023-01-24T11:10:00;5.00;99.90
16180;DHT22;8196;49.428;10.906;2023-01-24T11:12:28;5.00;99.90
16180;DHT22;8196;49.428;10.906;2023-01-24T11:14:55;5.00;99.90
16180;DHT22;8196;49.428;10.906;2023-01-24T11:17:31;4.80;99.90
16180;DHT22;8196;49.428;10.906;2023-01-24T11:20:04;4.80;99.90
16180;DHT22;8196;49.428;10.906;2023-01-24T11:22:35;4.80;99.90
16180;DHT22;8196;49.428;10.906;2023-01-24T11:25:12;4.90;99.90
16180;DHT22;8196;49.428;10.906;2023-01-24T11:27:48;4.90;99.90
16180;DHT22;8196;49.428;10.906;2023-01-24T11:30:17;4.90;99.90
16180;DHT22;8196;49.428;10.906;2023-01-24T11:32:58;4.90;99.90
16180;DHT22;8196;49.428;10.906;2023-01-24T11:35:33;4.90;99.90
16180;DHT22;8196;49.428;10.906;2023-01-24T11:46:48;5.10;99.90
16180;DHT22;8196;49.428;10.906;2023-01-24T11:49:42;5.60;99.90
16180;DHT22;8196;49.428;10.906;2023-01-24T11:54:57;5.40;99.90
16180;DHT22;8196;49.428;10.906;2023-01-24T12:06:42;5.40;99.90
16180;DHT22;8196;49.428;10.906;2023-01-24T12:09:21;5.40;99.90
16180;DHT22;8196;49.428;10.906;2023-01-24T12:12:05;5.50;99.90
16180;DHT22;8196;49.428;10.906;2023-01-24T12:14:40;5.40;99.90
16180;DHT22;8196;49.428;10.906;2023-01-24T12:20:33;5.30;99.90
16180;DHT22;8196;49.428;10.906;2023-01-24T12:26:09;5.20;99.90
16180;DHT22;8196;49.428;10.906;2023-01-24T12:28:51;5.10;99.90
16180;DHT22;8196;49.428;10.906;2023-01-24T12:31:26;5.10;99.90
16180;DHT22;8196;49.428;10.906;2023-01-24T12:34:03;4.70;99.90
16180;DHT22;8196;49.428;10.906;2023-01-24T12:36:42;5.10;99.90
16180;DHT22;8196;49.428;10.906;2023-01-24T12:39:17;5.10;99.90
16180;DHT22;8196;49.428;10.906;2023-01-24T12:41:51;5.10;99.90
16180;DHT22;8196;49.428;10.906;2023-01-24T12:44:31;5.10;99.90
16180;DHT22;8196;49.428;10.906;2023-01-24T12:55:22;4.80;99.90
16180;DHT22;8196;49.428;10.906;2023-01-24T12:57:51;4.70;99.90
16180;DHT22;8196;49.428;10.906;2023-01-24T13:00:22;4.70;99.90
16180;DHT22;8196;49.428;10.906;2023-01-24T13:03:02;4.60;99.90
16180;DHT22;8196;49.428;10.906;2023-01-24T13:06:10;4.50;99.90
16180;DHT22;8196;49.428;10.906;2023-01-24T13:08:44;4.50;99.90
16180;DHT22;8196;49.428;10.906;2023-01-24T13:11:18;4.60;99.90
16180;DHT22;8196;49.428;10.906;2023-01-24T13:14:07;4.60;99.90
16180;DHT22;8196;49.428;10.906;2023-01-24T13:19:52;4.50;99.90
16180;DHT22;8196;49.428;10.906;2023-01-24T13:36:19;4.40;99.90
16180;DHT22;8196;49.428;10.906;2023-01-24T13:38:48;4.30;99.90
16180;DHT22;8196;49.428;10.906;2023-01-24T13:41:17;4.20;99.90
16180;DHT22;8196;49.428;10.906;2023-01-24T13:43:51;4.10;99.90
16180;DHT22;8196;49.428;10.906;2023-01-24T13:46:18;3.90;99.90
16180;DHT22;8196;49.428;10.906;2023-01-24T13:48:53;4.10;99.90
16180;DHT22;8196;49.428;10.906;2023-01-24T13:51:22;4.10;99.90
16180;DHT22;8196;49.428;10.906;2023-01-24T13:53:57;4.10;99.90
16180;DHT22;8196;49.428;10.906;2023-01-24T13:56:24;4.20;99.90
16180;DHT22;8196;49.428;10.906;2023-01-24T13:58:52;4.30;99.90
16180;DHT22;8196;49.428;10.906;2023-01-24T14:01:20;4.30;99.90
16180;DHT22;8196;49.428;10.906;2023-01-24T14:03:59;4.30;99.90
16180;DHT22;8196;49.428;10.906;2023-01-24T14:06:27;4.30;99.90
16180;DHT22;8196;49.428;10.906;2023-01-24T14:11:54;4.20;99.90
16180;DHT22;8196;49.428;10.906;2023-01-24T14:14:32;4.30;99.90
16180;DHT22;8196;49.428;10.906;2023-01-24T14:17:02;4.20;99.90
16180;DHT22;8196;49.428;10.906;2023-01-24T14:19:33;4.20;99.90
16180;DHT22;8196;49.428;10.906;2023-01-24T14:22:15;4.30;99.90
16180;DHT22;8196;49.428;10.906;2023-01-24T14:24:55;4.30;99.90
16180;DHT22;8196;49.428;10.906;2023-01-24T14:27:37;4.30;99.90
16180;DHT22;8196;49.428;10.906;2023-01-24T14:32:53;4.20;99.90
16180;DHT22;8196;49.428;10.906;2023-01-24T14:35:27;4.20;99.90
16180;DHT22;8196;49.428;10.906;2023-01-24T14:38:17;4.20;99.90
16180;DHT22;8196;49.428;10.906;2023-01-24T14:40:50;4.20;99.90
16180;DHT22;8196;49.428;10.906;2023-01-24T14:43:18;4.20;99.90
16180;DHT22;8196;49.428;10.906;2023-01-24T14:45:46;4.10;99.90
16180;DHT22;8196;49.428;10.906;2023-01-24T14:48:23;4.10;99.90
16180;DHT22;8196;49.428;10.906;2023-01-24T14:51:03;3.80;99.90
16180;DHT22;8196;49.428;10.906;2023-01-24T14:53:31;4.00;99.90
16180;DHT22;8196;49.428;10.906;2023-01-24T14:56:02;4.20;99.90
16180;DHT22;8196;49.428;10.906;2023-01-24T14:58:32;4.00;99.90
16180;DHT22;8196;49.428;10.906;2023-01-24T15:01:00;4.00;99.90
16180;DHT22;8196;49.428;10.906;2023-01-24T15:03:31;3.60;99.90
16180;DHT22;8196;49.428;10.906;2023-01-24T15:08:28;3.90;99.90
16180;DHT22;8196;49.428;10.906;2023-01-24T15:11:00;3.80;99.90
16180;DHT22;8196;49.428;10.906;2023-01-24T15:13:46;3.80;99.90
16180;DHT22;8196;49.428;10.906;2023-01-24T15:16:21;3.80;99.90
16180;DHT22;8196;49.428;10.906;2023-01-24T15:18:52;3.80;99.90
16180;DHT22;8196;49.428;10.906;2023-01-24T15:21:40;3.80;99.90
16180;DHT22;8196;49.428;10.906;2023-01-24T15:24:27;3.80;99.90
16180;DHT22;8196;49.428;10.906;2023-01-24T15:26:56;3.70;99.90
16180;DHT22;8196;49.428;10.906;2023-01-24T15:29:42;3.60;99.90
16180;DHT22;8196;49.428;10.906;2023-01-24T15:32:37;3.70;99.90
16180;DHT22;8196;49.428;10.906;2023-01-24T15:35:22;4.10;99.90
16180;DHT22;8196;49.428;10.906;2023-01-24T15:43:41;3.50;99.90
16180;DHT22;8196;49.428;10.906;2023-01-24T15:49:27;3.50;99.90
16180;DHT22;8196;49.428;10.906;2023-01-24T15:54:35;3.40;99.90
16180;DHT22;8196;49.428;10.906;2023-01-24T15:57:05;3.40;99.90
16180;DHT22;8196;49.428;10.906;2023-01-24T15:59:33;3.40;99.90
16180;DHT22;8196;49.428;10.906;2023-01-24T16:02:00;3.60;99.90
16180;DHT22;8196;49.428;10.906;2023-01-24T16:04:27;3.50;99.90
16180;DHT22;8196;49.428;10.906;2023-01-24T16:06:54;3.50;99.90
16180;DHT22;8196;49.428;10.906;2023-01-24T16:09:21;3.50;99.90
16180;DHT22;8196;49.428;10.906;2023-01-24T16:11:47;3.50;99.90
16180;DHT22;8196;49.428;10.906;2023-01-24T16:14:18;3.50;99.90
16180;DHT22;8196;49.428;10.906;2023-01-24T16:16:47;3.40;99.90
16180;DHT22;8196;49.428;10.906;2023-01-24T16:19:16;3.40;99.90
16180;DHT22;8196;49.428;10.906;2023-01-24T16:21:44;3.50;99.90
16180;DHT22;8196;49.428;10.906;2023-01-24T16:24:11;3.50;99.90
16180;DHT22;8196;49.428;10.906;2023-01-24T16:26:43;3.20;99.90
16180;DHT22;8196;49.428;10.906;2023-01-24T16:29:14;3.40;99.90
16180;DHT22;8196;49.428;10.906;2023-01-24T16:31:41;3.20;99.90
16180;DHT22;8196;49.428;10.906;2023-01-24T16:34:08;3.20;99.90
16180;DHT22;8196;49.428;10.906;2023-01-24T16:36:35;3.30;99.90
16180;DHT22;8196;49.428;10.906;2023-01-24T16:39:03;3.30;99.90
16180;DHT22;8196;49.428;10.906;2023-01-24T16:41:30;3.40;99.90
16180;DHT22;8196;49.428;10.906;2023-01-24T16:43:57;3.20;99.90
16180;DHT22;8196;49.428;10.906;2023-01-24T16:46:24;3.30;99.90
16180;DHT22;8196;49.428;10.906;2023-01-24T16:48:51;3.20;99.90
16180;DHT22;8196;49.428;10.906;2023-01-24T16:51:19;3.30;99.90
16180;DHT22;8196;49.428;10.906;2023-01-24T16:53:46;3.30;99.90
16180;DHT22;8196;49.428;10.906;2023-01-24T16:56:13;3.30;99.90
16180;DHT22;8196;49.428;10.906;2023-01-24T16:58:39;3.20;99.90
16180;DHT22;8196;49.428;10.906;2023-01-24T17:01:08;3.20;99.90
16180;DHT22;8196;49.428;10.906;2023-01-24T17:03:35;3.20;99.90
16180;DHT22;8196;49.428;10.906;2023-01-24T17:06:06;3.20;99.90
16180;DHT22;8196;49.428;10.906;2023-01-24T17:08:34;3.20;99.90
16180;DHT22;8196;49.428;10.906;2023-01-24T17:11:04;3.20;99.90
16180;DHT22;8196;49.428;10.906;2023-01-24T17:13:31;3.30;99.90
16180;DHT22;8196;49.428;10.906;2023-01-24T17:16:03;3.20;99.90
16180;DHT22;8196;49.428;10.906;2023-01-24T17:18:32;3.20;99.90
16180;DHT22;8196;49.428;10.906;2023-01-24T17:21:01;3.20;99.90
16180;DHT22;8196;49.428;10.906;2023-01-24T17:23:29;3.10;99.90
16180;DHT22;8196;49.428;10.906;2023-01-24T17:26:01;3.10;99.90
16180;DHT22;8196;49.428;10.906;2023-01-24T17:28:28;3.60;99.90
16180;DHT22;8196;49.428;10.906;2023-01-24T17:30:55;3.20;99.90
16180;DHT22;8196;49.428;10.906;2023-01-24T17:33:23;3.20;99.90
16180;DHT22;8196;49.428;10.906;2023-01-24T17:35:49;3.20;99.90
16180;DHT22;8196;49.428;10.906;2023-01-24T17:38:16;3.20;99.90
16180;DHT22;8196;49.428;10.906;2023-01-24T17:40:43;3.30;99.90
16180;DHT22;8196;49.428;10.906;2023-01-24T17:43:11;3.20;99.90
16180;DHT22;8196;49.428;10.906;2023-01-24T17:45:37;3.20;99.90
16180;DHT22;8196;49.428;10.906;2023-01-24T17:48:04;3.20;99.90
16180;DHT22;8196;49.428;10.906;2023-01-24T17:50:31;3.30;99.90
16180;DHT22;8196;49.428;10.906;2023-01-24T17:52:58;3.20;99.90
16180;DHT22;8196;49.428;10.906;2023-01-24T17:55:24;3.20;99.90